createdAt,value
2023-09-20T00:51:17.087Z,21.70
2023-09-20T00:53:47.556Z,21.60
2023-09-20T00:56:17.676Z,21.70
2023-09-20T00:58:49.206Z,21.80
2023-09-20T01:01:18.913Z,21.80
2023-09-20T01:03:50.124Z,21.90
2023-09-20T01:06:20.506Z,21.80
2023-09-20T01:08:49.980Z,21.80
2023-09-20T01:11:20.542Z,21.80
2023-09-20T01:13:50.249Z,22.00
2023-09-20T01:16:19.780Z,22.10
2023-09-20T01:18:49.638Z,22.20
2023-09-20T01:21:19.130Z,22.20
2023-09-20T01:23:48.724Z,22.20
2023-09-20T01:26:18.738Z,22.20
2023-09-20T01:28:49.325Z,22.20
2023-09-20T01:31:18.867Z,22.20
2023-09-20T01:33:49.479Z,22.30
2023-09-20T01:36:19.567Z,22.40
2023-09-20T01:38:49.082Z,22.30
2023-09-20T01:41:21.782Z,22.30
2023-09-20T01:43:53.002Z,22.50
2023-09-20T01:46:22.538Z,22.60
2023-09-20T01:48:52.858Z,22.60
2023-09-20T03:25:42.322Z,23.00
2023-09-20T03:28:13.874Z,23.10
2023-09-20T03:30:43.713Z,23.20
2023-09-20T03:33:13.973Z,23.30
2023-09-20T03:35:43.559Z,23.30
2023-09-20T03:38:13.479Z,23.40
2023-09-20T03:40:44.108Z,23.50
2023-09-20T03:43:14.406Z,23.50
2023-09-20T03:45:44.919Z,23.50
2023-09-20T03:48:15.506Z,23.40
2023-09-20T03:50:46.777Z,23.30
2023-09-20T03:53:18.406Z,23.40
2023-09-20T03:55:51.824Z,23.40
2023-09-20T03:58:21.669Z,23.40
2023-09-20T04:00:52.079Z,23.50
2023-09-20T04:03:22.805Z,23.60
2023-09-20T04:05:54.131Z,23.70
2023-09-20T04:08:25.289Z,23.60
2023-09-20T04:10:55.214Z,23.60
2023-09-20T04:13:25.674Z,23.70
2023-09-20T04:15:56.265Z,23.80
2023-09-20T04:18:26.113Z,23.70
2023-09-20T04:20:56.124Z,23.80
2023-09-20T05:02:12.142Z,23.10
2023-09-20T05:04:42.923Z,23.20
2023-09-20T05:07:13.126Z,23.20
2023-09-20T05:09:42.733Z,23.10
2023-09-20T05:12:12.612Z,23.10
2023-09-20T05:14:42.309Z,23.00
2023-09-20T05:17:11.808Z,23.00
2023-09-20T05:19:42.455Z,23.00
2023-09-20T05:22:11.929Z,22.90
2023-09-20T05:24:41.572Z,22.80
2023-09-20T05:27:11.022Z,23.00
2023-09-20T05:29:40.521Z,23.20
2023-09-20T05:32:11.214Z,23.20
2023-09-20T05:34:42.156Z,23.10
2023-09-20T05:37:11.707Z,23.00
2023-09-20T05:39:42.131Z,23.00
2023-09-20T05:42:12.331Z,23.00
2023-09-20T05:44:42.394Z,23.00
2023-09-20T05:47:12.248Z,22.80
2023-09-20T05:49:41.808Z,22.80
2023-09-20T05:52:11.669Z,22.70
2023-09-20T05:54:44.989Z,22.50
2023-09-20T05:57:16.783Z,22.30
2023-09-20T05:59:46.339Z,22.30
2023-09-20T06:02:16.185Z,22.20
2023-09-20T06:04:45.801Z,22.10
2023-09-20T06:07:16.363Z,22.00
2023-09-20T06:09:45.836Z,21.80
2023-09-20T06:12:16.327Z,21.70
2023-09-20T06:14:46.377Z,21.60
2023-09-20T06:17:15.963Z,21.60
2023-09-20T06:19:45.526Z,21.50
2023-09-20T06:22:15.971Z,21.50
2023-09-20T06:24:49.002Z,21.40
2023-09-20T06:27:19.579Z,21.40
2023-09-20T06:29:49.096Z,21.30
2023-09-20T06:32:19.260Z,21.20
2023-09-20T06:34:58.778Z,21.00
2023-09-20T06:37:29.078Z,21.20
2023-09-20T06:39:59.936Z,21.20
2023-09-20T06:42:32.802Z,21.10
2023-09-20T06:45:03.330Z,21.10
2023-09-20T06:47:33.798Z,21.10
2023-09-20T06:50:06.550Z,21.10
2023-09-20T06:52:37.439Z,21.00
2023-09-20T06:55:07.117Z,20.80
2023-09-20T06:57:37.875Z,20.70
2023-09-20T07:00:07.651Z,20.70
2023-09-20T07:02:37.441Z,20.60
2023-09-20T07:05:08.436Z,20.60
2023-09-20T07:07:37.997Z,20.30
2023-09-20T07:10:08.903Z,20.40
2023-09-20T07:12:41.353Z,20.30
2023-09-20T07:15:12.339Z,20.10
2023-09-20T07:17:44.288Z,20.00
2023-09-20T07:20:18.778Z,19.90
2023-09-20T07:22:49.734Z,19.90
2023-09-20T07:25:22.692Z,19.70
2023-09-20T07:27:53.775Z,19.60
2023-09-20T07:30:25.845Z,19.60
2023-09-20T07:33:10.295Z,19.50
2023-09-20T07:35:55.688Z,19.50
2023-09-20T07:38:35.516Z,19.30
2023-09-20T07:41:12.568Z,19.20
2023-09-20T07:43:44.832Z,19.10
2023-09-20T07:46:16.995Z,19.00
2023-09-20T07:48:53.239Z,18.90
2023-09-20T07:51:23.379Z,18.80
2023-09-20T10:07:56.485Z,17.00
2023-09-20T10:10:27.343Z,17.10
2023-09-20T10:12:57.949Z,17.10
2023-09-20T10:15:27.773Z,17.10
2023-09-20T10:17:58.892Z,17.00
2023-09-20T10:20:49.436Z,16.90
2023-09-20T10:23:20.229Z,16.90
2023-09-20T10:25:51.228Z,16.90
2023-09-20T10:28:20.702Z,16.90
2023-09-20T10:31:00.404Z,17.00
2023-09-20T10:33:48.411Z,16.80
2023-09-20T10:36:35.164Z,16.90
2023-09-20T10:39:21.232Z,16.90
2023-09-20T10:41:52.430Z,16.90
2023-09-20T10:44:32.397Z,16.80
2023-09-20T10:47:03.864Z,16.80
2023-09-20T10:49:53.029Z,16.80
2023-09-20T10:52:40.041Z,16.80
2023-09-20T10:55:31.376Z,16.80
2023-09-20T10:58:03.625Z,16.80
2023-09-20T11:00:37.614Z,16.70
2023-09-20T11:03:08.333Z,16.70
2023-09-20T11:05:38.657Z,16.70
2023-09-20T11:08:14.074Z,16.70
2023-09-20T11:10:43.712Z,16.60
2023-09-20T11:13:17.939Z,16.70
2023-09-20T11:15:51.950Z,16.70
2023-09-20T11:18:22.393Z,16.70
2023-09-20T11:20:55.336Z,16.70
2023-09-20T11:23:25.453Z,16.70
2023-09-20T11:26:00.158Z,16.70
2023-09-20T11:28:30.738Z,16.70
2023-09-20T11:31:00.235Z,16.70
2023-09-20T11:33:33.412Z,16.70
2023-09-20T11:36:03.122Z,16.60
2023-09-20T11:54:29.693Z,16.50
2023-09-20T11:57:03.348Z,16.50
2023-09-20T11:59:33.190Z,16.50
2023-09-20T12:02:05.015Z,16.50
2023-09-20T12:04:34.961Z,16.50
2023-09-20T12:07:04.956Z,16.40
2023-09-20T12:09:35.664Z,16.50
2023-09-20T12:12:08.478Z,16.50
2023-09-20T12:14:41.538Z,16.40
2023-09-20T12:17:12.608Z,16.40
2023-09-20T12:19:43.951Z,16.50
2023-09-20T12:22:13.881Z,16.40
2023-09-20T12:24:44.396Z,16.40
2023-09-20T12:27:14.833Z,16.30
2023-09-20T12:29:44.776Z,16.30
2023-09-20T12:32:14.310Z,16.40
2023-09-20T12:34:44.745Z,16.40
2023-09-20T12:37:14.172Z,16.40
2023-09-20T12:39:44.480Z,16.30
2023-09-20T12:42:15.479Z,16.30
2023-09-20T12:44:45.986Z,16.30
2023-09-20T12:47:17.218Z,16.20
2023-09-20T12:49:50.628Z,16.20
2023-09-20T12:52:20.698Z,16.10
2023-09-20T12:54:50.548Z,16.20
2023-09-20T12:57:20.006Z,16.20
2023-09-20T12:59:49.789Z,16.10
2023-09-20T13:02:20.045Z,16.10
2023-09-20T13:04:49.527Z,16.10
2023-09-20T13:07:19.010Z,16.00
2023-09-20T13:09:50.499Z,16.00
2023-09-20T13:12:20.018Z,15.90
2023-09-20T13:14:49.562Z,15.90
2023-09-20T13:17:19.050Z,16.00
2023-09-20T13:19:48.952Z,16.00
2023-09-20T13:22:18.921Z,16.00
2023-09-20T13:24:51.306Z,16.00
2023-09-20T13:27:23.126Z,16.00
2023-09-20T13:29:52.597Z,15.90
2023-09-20T13:32:22.320Z,16.00
2023-09-20T13:34:53.349Z,16.00
2023-09-20T13:37:24.983Z,16.00
2023-09-20T13:39:54.859Z,16.00
2023-09-20T13:42:24.515Z,16.00
2023-09-20T13:44:54.424Z,16.00
2023-09-20T13:47:27.004Z,15.90
2023-09-20T13:49:56.846Z,15.90
2023-09-20T13:52:26.463Z,16.00
2023-09-20T13:54:57.970Z,15.90
2023-09-20T13:57:27.439Z,15.90
2023-09-20T13:59:57.917Z,15.90
2023-09-20T14:02:27.678Z,15.80
2023-09-20T14:04:57.733Z,15.70
2023-09-20T14:07:27.625Z,15.70
2023-09-20T14:09:57.087Z,15.50
2023-09-20T14:12:26.968Z,15.60
2023-09-20T14:14:56.642Z,15.60
2023-09-20T14:17:26.622Z,15.50
2023-09-20T14:19:56.099Z,15.40
2023-09-20T14:22:26.640Z,15.40
2023-09-20T14:24:56.150Z,15.40
2023-09-20T14:27:26.119Z,15.30
2023-09-20T14:29:55.625Z,15.30
2023-09-20T14:32:25.154Z,15.20
2023-09-20T14:34:55.698Z,15.10
2023-09-20T14:37:26.956Z,15.00
2023-09-20T14:40:00.244Z,15.00
2023-09-20T14:42:32.726Z,14.90
2023-09-20T14:45:02.823Z,14.90
2023-09-20T14:47:32.760Z,14.90
2023-09-20T14:50:04.582Z,15.00
2023-09-20T14:52:36.712Z,14.80
2023-09-20T14:55:07.421Z,14.80
2023-09-20T14:57:37.275Z,14.80
2023-09-20T15:00:08.810Z,14.80
2023-09-20T15:02:38.476Z,14.70
2023-09-20T15:05:09.327Z,14.60
2023-09-20T15:07:39.311Z,14.60
2023-09-20T15:10:14.004Z,14.50
2023-09-20T15:12:46.724Z,14.50
2023-09-20T15:15:18.584Z,14.50
2023-09-20T15:17:49.183Z,14.40
2023-09-20T15:20:20.816Z,14.40
2023-09-20T15:22:53.031Z,14.40
2023-09-20T15:25:22.953Z,14.30
2023-09-20T15:27:54.169Z,14.30
2023-09-20T15:30:24.423Z,14.20
2023-09-20T15:32:54.954Z,14.20
2023-09-20T15:35:25.030Z,14.20
2023-09-20T15:37:54.481Z,14.20
2023-09-20T15:40:25.297Z,14.20
2023-09-20T15:42:58.371Z,14.10
2023-09-20T15:45:29.650Z,14.10
2023-09-20T15:47:59.987Z,14.20
2023-09-20T15:50:32.188Z,14.10
2023-09-20T15:53:01.676Z,14.00
2023-09-20T15:55:32.739Z,14.00
2023-09-20T15:58:02.664Z,14.00
2023-09-20T16:00:32.125Z,14.00
2023-09-20T16:03:01.935Z,14.00
2023-09-20T16:05:34.214Z,13.80
2023-09-20T16:08:05.041Z,13.90
2023-09-20T16:10:35.759Z,13.90
2023-09-20T16:13:05.232Z,14.00
2023-09-20T16:15:34.803Z,13.90
2023-09-20T16:18:06.807Z,14.00
2023-09-20T16:20:36.683Z,13.90
